createdAt,value
2022-08-07T00:00:36.012Z,16.80
2022-08-07T00:03:08.676Z,16.80
2022-08-07T00:05:36.329Z,16.80
2022-08-07T00:08:04.696Z,16.80
2022-08-07T00:10:31.722Z,16.70
2022-08-07T00:13:01.809Z,16.70
2022-08-07T00:15:37.768Z,16.60
2022-08-07T00:18:05.374Z,16.70
2022-08-07T00:20:34.141Z,16.70
2022-08-07T00:23:01.630Z,16.70
2022-08-07T00:25:28.493Z,16.70
2022-08-07T00:28:04.390Z,16.70
2022-08-07T00:30:31.684Z,16.70
2022-08-07T00:32:59.502Z,16.70
2022-08-07T00:35:26.678Z,16.60
2022-08-07T00:37:56.537Z,16.60
2022-08-07T00:40:39.673Z,16.60
2022-08-07T00:43:09.783Z,16.60
2022-08-07T00:45:38.692Z,16.60
2022-08-07T00:48:09.145Z,16.50
2022-08-07T00:50:50.739Z,16.50
2022-08-07T00:53:20.147Z,16.50
2022-08-07T00:56:03.431Z,16.50
2022-08-07T00:58:32.458Z,16.50
2022-08-07T01:00:59.358Z,16.40
2022-08-07T01:03:55.449Z,16.40
2022-08-07T01:06:12.909Z,16.40
2022-08-07T01:08:41.769Z,16.40
2022-08-07T01:12:23.538Z,16.30
2022-08-07T01:14:04.746Z,16.40
2022-08-07T01:16:31.511Z,16.30
2022-08-07T01:18:58.334Z,16.30
2022-08-07T01:21:27.539Z,16.30
2022-08-07T01:23:55.328Z,16.30
2022-08-07T01:26:22.409Z,16.20
2022-08-07T01:28:53.113Z,16.30
2022-08-07T01:31:19.903Z,16.30
2022-08-07T01:33:55.816Z,16.30
2022-08-07T01:36:33.365Z,16.20
2022-08-07T01:39:01.021Z,16.20
2022-08-07T01:41:27.787Z,16.20
2022-08-07T01:43:54.518Z,16.20
2022-08-07T01:46:21.509Z,16.20
2022-08-07T01:48:48.724Z,16.30
2022-08-07T01:52:01.117Z,16.20
2022-08-07T01:54:19.315Z,16.20
2022-08-07T01:57:00.891Z,16.20
2022-08-07T01:59:45.347Z,16.10
2022-08-07T02:02:32.813Z,16.00
2022-08-07T02:05:07.618Z,16.00
2022-08-07T02:07:52.881Z,15.90
2022-08-07T02:10:23.197Z,16.00
2022-08-07T02:12:50.423Z,16.00
2022-08-07T02:15:20.812Z,16.00
2022-08-07T02:17:49.942Z,16.00
2022-08-07T02:20:23.270Z,16.00
2022-08-07T02:23:00.122Z,16.00
2022-08-07T02:26:11.345Z,16.00
2022-08-07T02:28:15.020Z,16.00
2022-08-07T02:30:51.563Z,16.00
2022-08-07T02:33:18.727Z,16.00
2022-08-07T02:36:27.105Z,16.00
2022-08-07T02:38:33.743Z,16.00
2022-08-07T02:41:00.955Z,16.10
2022-08-07T02:43:30.666Z,16.00
2022-08-07T02:46:01.814Z,16.00
2022-08-07T02:48:30.207Z,15.90
2022-08-07T02:50:57.699Z,15.90
2022-08-07T02:53:29.002Z,15.80
2022-08-07T02:56:04.340Z,15.80
2022-08-07T02:58:33.236Z,15.70
2022-08-07T03:01:00.457Z,15.60
2022-08-07T03:03:29.481Z,15.60
2022-08-07T03:06:16.532Z,15.70
2022-08-07T03:08:52.390Z,15.60
2022-08-07T03:11:19.518Z,15.60
2022-08-07T03:13:51.967Z,15.60
2022-08-07T03:16:27.876Z,15.60
2022-08-07T03:18:54.775Z,15.60
2022-08-07T03:21:22.513Z,15.60
2022-08-07T03:24:20.376Z,15.60
2022-08-07T03:26:36.001Z,15.50
2022-08-07T03:29:11.146Z,15.50
2022-08-07T03:31:42.718Z,15.60
2022-08-07T03:34:10.773Z,15.50
2022-08-07T03:36:45.700Z,15.50
2022-08-07T03:39:13.004Z,15.40
2022-08-07T03:41:41.803Z,15.30
2022-08-07T03:44:15.257Z,15.20
2022-08-07T03:47:13.103Z,15.20
2022-08-07T03:49:29.594Z,15.10
2022-08-07T03:52:01.116Z,15.10
2022-08-07T03:54:36.211Z,15.10
2022-08-07T03:58:33.470Z,15.20
2022-08-07T04:00:03.980Z,15.20
2022-08-07T04:02:31.025Z,15.10
2022-08-07T04:04:58.428Z,14.90
2022-08-07T04:07:25.738Z,14.80
2022-08-07T04:10:04.181Z,14.80
2022-08-07T04:12:32.281Z,14.80
2022-08-07T04:15:02.062Z,14.80
2022-08-07T04:18:31.887Z,14.90
2022-08-07T04:20:19.519Z,14.80
2022-08-07T04:22:53.161Z,14.80
2022-08-07T04:25:24.060Z,14.80
2022-08-07T04:27:59.005Z,14.80
2022-08-07T04:30:39.602Z,14.90
2022-08-07T04:33:13.772Z,14.80
2022-08-07T04:35:40.783Z,14.90
2022-08-07T04:38:09.064Z,14.90
2022-08-07T04:40:44.105Z,14.90
2022-08-07T04:43:28.427Z,15.00
2022-08-07T04:47:04.041Z,15.10
2022-08-07T04:49:57.789Z,15.10
2022-08-07T04:52:46.945Z,15.20
2022-08-07T04:58:14.865Z,15.30
2022-08-07T04:59:18.233Z,15.20
2022-08-07T05:01:50.615Z,15.30
2022-08-07T05:04:22.614Z,15.40
2022-08-07T05:07:20.312Z,15.50
2022-08-07T05:10:01.003Z,15.60
2022-08-07T05:12:30.765Z,15.70
2022-08-07T05:15:23.058Z,15.80
2022-08-07T05:17:56.038Z,15.90
2022-08-07T05:20:27.049Z,16.00
2022-08-07T05:23:00.070Z,16.20
2022-08-07T05:25:36.623Z,16.50
2022-08-07T05:28:20.612Z,16.70
2022-08-07T05:30:50.809Z,17.00
2022-08-07T05:33:20.904Z,17.30
2022-08-07T05:35:49.084Z,17.60
2022-08-07T05:39:01.170Z,18.00
2022-08-07T05:41:05.306Z,18.40
2022-08-07T05:44:01.157Z,18.80
2022-08-07T05:46:26.720Z,19.30
2022-08-07T05:48:58.597Z,19.90
2022-08-07T05:51:26.304Z,20.40
2022-08-07T05:54:12.940Z,20.90
2022-08-07T05:56:47.746Z,21.40
2022-08-07T05:59:19.451Z,21.70
2022-08-07T06:01:47.648Z,22.20
2022-08-07T06:04:18.262Z,22.70
2022-08-07T06:06:47.656Z,23.10
2022-08-07T06:09:23.252Z,23.40
2022-08-07T06:12:09.945Z,23.70
2022-08-07T06:14:39.548Z,23.80
2022-08-07T06:17:07.176Z,23.80
2022-08-07T06:20:03.487Z,24.00
2022-08-07T06:22:23.887Z,24.20
2022-08-07T06:24:58.064Z,23.90
2022-08-07T06:28:00.171Z,23.80
2022-08-07T06:30:25.964Z,23.80
2022-08-07T06:32:59.108Z,23.70
2022-08-07T06:35:38.898Z,23.80
2022-08-07T06:38:19.323Z,23.80
2022-08-07T06:40:49.831Z,23.80
2022-08-07T06:43:21.525Z,23.90
2022-08-07T06:45:49.283Z,24.00
2022-08-07T06:48:16.023Z,24.30
2022-08-07T06:50:51.656Z,24.40
2022-08-07T06:54:12.114Z,24.50
2022-08-07T06:56:07.440Z,24.50
2022-08-07T06:58:41.447Z,24.60
2022-08-07T07:01:33.126Z,24.90
2022-08-07T07:04:28.473Z,25.00
2022-08-07T07:07:00.411Z,25.00
2022-08-07T07:09:30.846Z,25.30
2022-08-07T07:12:09.666Z,25.10
2022-08-07T07:15:03.343Z,24.90
2022-08-07T07:17:39.190Z,24.80
2022-08-07T07:20:39.644Z,24.80
2022-08-07T07:24:06.609Z,25.10
2022-08-07T07:26:32.805Z,25.40
2022-08-07T07:29:39.573Z,25.60
2022-08-07T07:31:47.049Z,25.40
2022-08-07T07:34:16.959Z,25.40
2022-08-07T07:36:47.873Z,25.50
2022-08-07T07:39:21.455Z,25.50
2022-08-07T07:41:50.868Z,25.40
2022-08-07T07:44:36.290Z,25.50
2022-08-07T07:47:15.706Z,25.70
2022-08-07T07:50:33.400Z,25.40
2022-08-07T07:52:36.899Z,25.40
2022-08-07T07:55:04.142Z,25.50
2022-08-07T07:57:51.502Z,25.60
2022-08-07T08:00:29.028Z,25.60
2022-08-07T08:03:07.960Z,25.70
2022-08-07T08:05:50.761Z,25.90
2022-08-07T08:08:34.909Z,26.00
2022-08-07T08:11:08.237Z,26.30
2022-08-07T08:13:43.824Z,26.60
2022-08-07T08:16:29.808Z,26.80
2022-08-07T08:18:56.993Z,27.00
2022-08-07T08:22:00.656Z,27.10
2022-08-07T08:24:47.915Z,27.10
2022-08-07T08:27:25.790Z,27.10
2022-08-07T08:30:05.870Z,27.10
2022-08-07T08:32:38.339Z,27.20
2022-08-07T08:35:07.006Z,27.20
2022-08-07T08:37:59.452Z,27.20
2022-08-07T08:40:37.917Z,26.90
2022-08-07T08:43:15.984Z,26.70
2022-08-07T08:45:59.261Z,26.80
2022-08-07T08:48:42.133Z,26.90
2022-08-07T08:51:49.611Z,27.00
2022-08-07T08:54:36.812Z,27.20
2022-08-07T08:57:07.588Z,27.50
2022-08-07T08:59:51.118Z,27.70
2022-08-07T09:02:49.667Z,27.80
2022-08-07T09:05:43.684Z,27.90
2022-08-07T09:08:30.205Z,28.10
2022-08-07T09:11:24.667Z,28.20
2022-08-07T09:14:20.465Z,27.90
2022-08-07T09:17:22.642Z,27.70
2022-08-07T09:20:09.413Z,27.20
2022-08-07T09:24:53.749Z,27.10
2022-08-07T09:27:04.570Z,27.20
2022-08-07T09:30:05.532Z,27.20
2022-08-07T09:33:05.290Z,27.10
2022-08-07T09:36:04.972Z,27.20
2022-08-07T09:39:11.597Z,27.40
2022-08-07T09:42:05.781Z,27.60
2022-08-07T09:46:28.642Z,28.10
2022-08-07T09:48:21.341Z,28.30
2022-08-07T09:52:09.436Z,28.40
2022-08-07T09:54:30.021Z,28.60
2022-08-07T09:57:31.742Z,28.50
2022-08-07T10:00:14.509Z,27.90
2022-08-07T10:02:55.226Z,27.50
2022-08-07T10:06:03.539Z,27.60
2022-08-07T10:08:49.602Z,27.50
2022-08-07T10:12:01.103Z,27.50
2022-08-07T10:14:31.144Z,27.50
2022-08-07T10:17:28.914Z,27.50
2022-08-07T10:20:45.352Z,27.50
2022-08-07T10:24:06.372Z,28.00
2022-08-07T10:26:54.240Z,28.10
2022-08-07T10:29:51.432Z,28.20
2022-08-07T10:32:52.698Z,27.90
2022-08-07T10:35:55.811Z,27.50
2022-08-07T10:38:46.379Z,27.70
2022-08-07T10:41:47.355Z,27.80
2022-08-07T10:44:37.970Z,27.60
2022-08-07T10:47:52.931Z,27.40
2022-08-07T10:50:26.464Z,27.50
2022-08-07T10:53:09.016Z,27.70
2022-08-07T10:55:50.465Z,28.00
2022-08-07T10:58:47.904Z,28.20
2022-08-07T11:01:51.010Z,28.10
2022-08-07T11:04:40.916Z,28.30
2022-08-07T11:07:58.526Z,28.50
2022-08-07T11:10:27.567Z,28.70
2022-08-07T11:14:42.221Z,28.50
2022-08-07T11:16:02.757Z,28.30
2022-08-07T11:18:36.847Z,28.10
2022-08-07T11:21:07.835Z,27.90
2022-08-07T11:23:39.727Z,27.90
2022-08-07T11:26:09.548Z,27.50
2022-08-07T11:28:43.335Z,27.30
2022-08-07T11:31:25.195Z,27.30
2022-08-07T11:34:03.964Z,27.50
2022-08-07T11:36:51.998Z,28.00
2022-08-07T11:39:59.993Z,28.40
2022-08-07T11:42:37.243Z,28.50
2022-08-07T11:45:35.964Z,28.60
2022-08-07T11:48:29.433Z,28.70
2022-08-07T11:51:40.769Z,28.70
2022-08-07T11:54:26.973Z,28.90
2022-08-07T11:57:12.708Z,28.90
2022-08-07T12:00:11.912Z,29.20
2022-08-07T12:03:41.955Z,29.50
2022-08-07T12:06:39.086Z,29.90
2022-08-07T12:09:07.506Z,29.80
2022-08-07T12:12:10.335Z,29.50
2022-08-07T12:14:55.999Z,29.40
2022-08-07T12:17:40.568Z,29.50
2022-08-07T12:20:32.295Z,29.50
2022-08-07T12:23:21.564Z,29.50
2022-08-07T12:26:30.092Z,29.50
2022-08-07T12:29:37.549Z,29.60
2022-08-07T12:32:30.049Z,29.30
2022-08-07T12:34:57.347Z,29.00
2022-08-07T12:37:28.132Z,29.20
2022-08-07T12:40:36.409Z,29.30
2022-08-07T12:43:01.887Z,29.60
2022-08-07T12:45:53.124Z,29.80
2022-08-07T12:48:52.177Z,30.00
2022-08-07T12:51:20.623Z,29.90
2022-08-07T12:54:24.098Z,29.90
2022-08-07T12:56:44.116Z,29.70
2022-08-07T12:59:20.671Z,29.80
2022-08-07T13:01:53.085Z,30.00
2022-08-07T13:04:34.718Z,29.80
2022-08-07T13:07:04.398Z,29.60
2022-08-07T13:10:21.655Z,29.50
2022-08-07T13:13:46.743Z,29.30
2022-08-07T13:16:17.673Z,29.50
2022-08-07T13:19:35.259Z,29.70
2022-08-07T13:22:19.666Z,29.90
2022-08-07T13:25:15.240Z,30.00
2022-08-07T13:28:11.504Z,30.30
2022-08-07T13:30:48.928Z,30.50
2022-08-07T13:34:14.751Z,30.90
2022-08-07T13:36:26.181Z,31.30
2022-08-07T13:39:12.959Z,31.60
2022-08-07T13:41:55.291Z,31.60
2022-08-07T13:44:26.404Z,31.50
2022-08-07T13:46:56.835Z,31.30
2022-08-07T13:50:35.355Z,31.20
2022-08-07T13:52:31.696Z,31.20
2022-08-07T13:54:57.338Z,31.20
2022-08-07T13:57:38.323Z,31.50
2022-08-07T14:00:07.811Z,31.70
2022-08-07T14:02:49.469Z,31.90
2022-08-07T14:05:23.035Z,32.10
2022-08-07T14:07:59.295Z,32.40
2022-08-07T14:10:33.465Z,32.50
2022-08-07T14:13:08.542Z,32.10
2022-08-07T14:15:43.223Z,32.10
2022-08-07T14:18:28.675Z,32.30
2022-08-07T14:21:11.577Z,32.30
2022-08-07T14:24:00.843Z,32.50
2022-08-07T14:26:50.712Z,32.90
2022-08-07T14:30:05.140Z,33.30
2022-08-07T14:32:09.311Z,33.30
2022-08-07T14:34:46.320Z,33.30
2022-08-07T14:37:16.685Z,33.30
2022-08-07T14:40:15.466Z,33.50
2022-08-07T14:42:33.696Z,33.70
2022-08-07T14:45:21.381Z,33.40
2022-08-07T14:47:51.123Z,32.90
2022-08-07T14:50:20.448Z,32.50
2022-08-07T14:52:47.814Z,32.00
2022-08-07T14:55:17.600Z,31.50
2022-08-07T14:57:55.213Z,31.00
2022-08-07T15:00:30.240Z,30.40
2022-08-07T15:02:58.907Z,30.00
2022-08-07T15:05:26.764Z,29.90
2022-08-07T15:07:54.224Z,29.80
2022-08-07T15:13:22.403Z,29.50
2022-08-07T15:15:53.619Z,29.40
2022-08-07T15:18:33.836Z,29.20
2022-08-07T15:21:08.300Z,29.00
2022-08-07T15:25:14.182Z,28.80
2022-08-07T15:26:44.766Z,28.70
2022-08-07T15:30:08.844Z,28.60
2022-08-07T15:34:57.152Z,28.50
2022-08-07T15:37:29.166Z,28.40
2022-08-07T15:40:34.585Z,28.30
2022-08-07T15:43:53.013Z,28.30
2022-08-07T15:46:31.541Z,28.20
2022-08-07T15:49:12.572Z,27.90
2022-08-07T15:54:26.797Z,27.60
2022-08-07T15:56:53.895Z,27.60
2022-08-07T15:59:39.722Z,27.60
2022-08-07T16:02:07.366Z,27.50
2022-08-07T16:04:36.170Z,27.60
2022-08-07T16:08:28.554Z,27.60
2022-08-07T16:09:54.626Z,27.70
2022-08-07T16:12:40.811Z,27.70
2022-08-07T16:15:57.472Z,27.60
2022-08-07T16:18:51.139Z,27.50
2022-08-07T16:22:01.419Z,27.40
2022-08-07T16:24:53.066Z,27.30
2022-08-07T16:27:40.258Z,27.30
2022-08-07T16:30:29.787Z,27.30
2022-08-07T16:34:01.374Z,27.30
2022-08-07T16:36:02.946Z,27.30
2022-08-07T16:39:00.727Z,27.20
2022-08-07T16:41:54.178Z,27.10
2022-08-07T16:45:15.161Z,27.00
2022-08-07T16:47:49.590Z,26.90
2022-08-07T16:50:36.315Z,26.80
2022-08-07T16:53:48.287Z,26.80
2022-08-07T16:56:21.207Z,26.70
2022-08-07T16:59:25.803Z,26.60
2022-08-07T17:02:52.445Z,26.40
2022-08-07T17:06:02.275Z,26.30
2022-08-07T17:09:09.593Z,26.20
2022-08-07T17:12:05.053Z,26.10
2022-08-07T17:15:05.742Z,26.00
2022-08-07T17:17:57.172Z,25.90
2022-08-07T17:20:32.774Z,25.80
2022-08-07T17:23:08.599Z,25.80
2022-08-07T17:25:52.211Z,25.70
2022-08-07T17:28:35.263Z,25.60
2022-08-07T17:31:16.451Z,25.60
2022-08-07T17:34:18.102Z,25.50
2022-08-07T17:36:57.463Z,25.40
2022-08-07T17:39:58.362Z,25.40
2022-08-07T17:42:35.362Z,25.30
2022-08-07T17:45:14.982Z,25.20
2022-08-07T17:47:54.013Z,25.10
2022-08-07T17:50:30.459Z,25.00
2022-08-07T17:53:01.036Z,25.00
2022-08-07T17:56:00.877Z,24.90
2022-08-07T17:58:46.483Z,24.80
2022-08-07T18:01:22.694Z,24.80
2022-08-07T18:04:16.820Z,24.70
2022-08-07T18:07:20.850Z,24.60
2022-08-07T18:10:32.624Z,24.50
2022-08-07T18:13:09.790Z,24.40
2022-08-07T18:15:54.997Z,24.30
2022-08-07T18:18:47.318Z,24.20
2022-08-07T18:21:37.171Z,24.20
2022-08-07T18:24:28.367Z,24.20
2022-08-07T18:27:08.916Z,24.10
2022-08-07T18:30:05.749Z,24.00
2022-08-07T18:33:24.502Z,24.00
2022-08-07T18:36:06.129Z,23.80
2022-08-07T18:38:56.754Z,23.70
2022-08-07T18:41:57.431Z,23.60
2022-08-07T18:45:40.188Z,23.50
2022-08-07T18:47:45.211Z,23.50
2022-08-07T18:50:39.052Z,23.40
2022-08-07T18:53:55.572Z,23.30
2022-08-07T18:56:57.944Z,23.30
2022-08-07T19:00:34.292Z,23.20
2022-08-07T19:03:12.197Z,23.10
2022-08-07T19:06:01.980Z,23.00
2022-08-07T19:08:49.925Z,22.90
2022-08-07T19:11:36.396Z,22.80
2022-08-07T19:14:20.381Z,22.70
2022-08-07T19:17:07.119Z,22.60
2022-08-07T19:19:51.022Z,22.50
2022-08-07T19:22:31.238Z,22.40
2022-08-07T19:24:58.761Z,22.20
2022-08-07T19:30:54.691Z,22.20
2022-08-07T19:31:05.118Z,22.10
2022-08-07T19:33:15.823Z,22.10
2022-08-07T19:35:56.659Z,21.90
2022-08-07T19:38:28.074Z,21.90
2022-08-07T19:40:59.064Z,21.80
2022-08-07T19:43:43.375Z,21.80
2022-08-07T19:46:12.494Z,21.80
2022-08-07T19:48:53.887Z,21.70
2022-08-07T19:51:50.601Z,21.60
2022-08-07T19:54:31.668Z,21.50
2022-08-07T19:58:04.472Z,21.50
2022-08-07T19:59:47.954Z,21.40
2022-08-07T20:02:25.843Z,21.30
2022-08-07T20:04:56.228Z,21.10
2022-08-07T20:07:47.234Z,21.00
2022-08-07T20:10:51.575Z,20.90
2022-08-07T20:13:23.497Z,20.80
2022-08-07T20:15:52.134Z,20.70
2022-08-07T20:18:20.892Z,20.60
2022-08-07T20:21:01.131Z,20.50
2022-08-07T20:23:40.845Z,20.50
2022-08-07T20:26:11.030Z,20.40
2022-08-07T20:28:39.005Z,20.30
2022-08-07T20:31:21.309Z,20.20
2022-08-07T20:33:56.649Z,20.00
2022-08-07T20:36:25.254Z,19.90
2022-08-07T20:39:00.304Z,19.90
2022-08-07T20:41:34.276Z,19.80
2022-08-07T20:44:04.988Z,19.80
2022-08-07T20:46:44.445Z,19.70
2022-08-07T20:50:01.160Z,19.60
2022-08-07T20:51:59.216Z,19.60
2022-08-07T20:54:30.195Z,19.60
2022-08-07T20:57:03.652Z,19.60
2022-08-07T21:00:06.605Z,19.50
2022-08-07T21:02:39.178Z,19.50
2022-08-07T21:05:10.383Z,19.50
2022-08-07T21:07:43.341Z,19.40
2022-08-07T21:10:25.150Z,19.30
2022-08-07T21:12:59.740Z,19.30
2022-08-07T21:15:58.554Z,19.20
2022-08-07T21:18:28.171Z,19.20
2022-08-07T21:20:56.646Z,19.10
2022-08-07T21:23:50.645Z,19.10
2022-08-07T21:27:00.407Z,19.10
2022-08-07T21:29:33.525Z,19.10
2022-08-07T21:32:43.096Z,19.00
2022-08-07T21:35:02.567Z,18.90
2022-08-07T21:37:59.242Z,18.80
2022-08-07T21:40:49.473Z,18.70
2022-08-07T21:43:22.726Z,18.60
2022-08-07T21:46:25.042Z,18.50
2022-08-07T21:49:05.938Z,18.40
2022-08-07T21:52:11.892Z,18.40
2022-08-07T21:55:27.911Z,18.40
2022-08-07T21:58:22.171Z,18.30
2022-08-07T22:01:00.658Z,18.30
2022-08-07T22:03:46.625Z,18.30
2022-08-07T22:06:30.307Z,18.30
2022-08-07T22:09:10.345Z,18.30
2022-08-07T22:11:53.045Z,18.20
2022-08-07T22:14:36.382Z,18.20
2022-08-07T22:17:04.251Z,18.10
2022-08-07T22:19:54.522Z,18.20
2022-08-07T22:22:28.949Z,18.10
2022-08-07T22:25:07.695Z,18.20
2022-08-07T22:28:07.753Z,18.20
2022-08-07T22:30:31.862Z,18.20
2022-08-07T22:33:05.046Z,18.20
2022-08-07T22:35:41.742Z,18.10
2022-08-07T22:38:20.667Z,18.10
2022-08-07T22:41:13.201Z,18.00
2022-08-07T22:43:49.181Z,17.90
2022-08-07T22:47:16.949Z,17.90
2022-08-07T22:49:58.534Z,17.90
2022-08-07T22:52:39.822Z,17.90
2022-08-07T22:55:48.275Z,17.90
2022-08-07T22:58:32.639Z,17.80
2022-08-07T23:01:42.021Z,17.70
2022-08-07T23:04:57.026Z,17.80
2022-08-07T23:07:58.063Z,17.80
2022-08-07T23:10:38.014Z,17.70
2022-08-07T23:13:20.925Z,17.60
2022-08-07T23:16:46.912Z,17.60
2022-08-07T23:19:51.275Z,17.60
2022-08-07T23:22:56.790Z,17.60
2022-08-07T23:25:35.604Z,17.60
2022-08-07T23:28:22.309Z,17.50
2022-08-07T23:34:24.042Z,17.50
2022-08-07T23:34:45.636Z,17.50
2022-08-07T23:38:00.306Z,17.50
2022-08-07T23:40:49.439Z,17.50
2022-08-07T23:43:37.855Z,17.50
2022-08-07T23:46:30.857Z,17.40
2022-08-07T23:49:50.067Z,17.40
2022-08-07T23:53:11.905Z,17.40
2022-08-07T23:55:51.736Z,17.40
2022-08-07T23:58:34.820Z,17.30
